Time;durP1;ratioP1;P1;durP2;ratioP2;P2;SDS_P1;SDS_P2;PMS_P1;PMS_P2;Temp;Humidity;BMP_temperature;BMP_pressure;BME280_temperature;BME280_humidity;BME280_pressure;Samples;Min_cycle;Max_cycle;Signal;HPM_P1;HPM_P2
2021/03/01 00:00:49;;;;;;;;;;;19.00;72.70;;;;;;4981995;28;95694;-46
2021/03/01 00:03:19;;;;;;;;;;;19.00;72.90;;;;;;4980910;28;95313;-46
2021/03/01 00:05:49;;;;;;;;;;;19.00;72.90;;;;;;4987177;28;95857;-47
2021/03/01 00:08:18;;;;;;;;;;;19.00;73.10;;;;;;4984966;28;96514;-46
2021/03/01 00:10:49;;;;;;;;;;;19.00;73.40;;;;;;4978137;28;95942;-46
2021/03/01 00:13:19;;;;;;;;;;;19.00;73.40;;;;;;4979678;28;95971;-44
2021/03/01 00:15:48;;;;;;;;;;;19.10;73.40;;;;;;4976169;28;95804;-44
2021/03/01 00:18:17;;;;;;;;;;;19.10;73.30;;;;;;4975845;28;96011;-45
2021/03/01 00:20:48;;;;;;;;;;;19.10;73.40;;;;;;4985271;28;96200;-44
2021/03/01 00:23:18;;;;;;;;;;;19.10;73.50;;;;;;4979309;28;95323;-44
2021/03/01 00:25:49;;;;;;;;;;;19.10;73.50;;;;;;4974079;28;95933;-44
2021/03/01 00:28:17;;;;;;;;;;;19.10;73.40;;;;;;4975844;28;95855;-44
2021/03/01 00:30:46;;;;;;;;;;;19.10;73.10;;;;;;4972467;28;96066;-44
2021/03/01 00:33:17;;;;;;;;;;;19.10;73.20;;;;;;4977006;28;95278;-44
2021/03/01 00:35:48;;;;;;;;;;;19.10;73.30;;;;;;4979438;28;95851;-44
2021/03/01 00:38:19;;;;;;;;;;;19.20;73.20;;;;;;4987231;28;96426;-44
2021/03/01 00:40:49;;;;;;;;;;;19.20;72.30;;;;;;4982001;28;99912;-44
2021/03/01 00:43:18;;;;;;;;;;;19.20;72.50;;;;;;4977125;28;97598;-44
2021/03/01 00:45:48;;;;;;;;;;;19.10;72.10;;;;;;4979232;28;95663;-44
2021/03/01 00:48:18;;;;;;;;;;;19.10;72.00;;;;;;4974866;28;96070;-44
2021/03/01 00:50:48;;;;;;;;;;;19.10;72.10;;;;;;4973912;28;96623;-47
2021/03/01 00:53:26;;;;;;;;;;;19.20;72.40;;;;;;4986120;28;96062;-44
2021/03/01 00:55:56;;;;;;;;;;;19.30;72.00;;;;;;4982178;28;97495;-46
2021/03/01 00:58:27;;;;;;;;;;;19.30;72.30;;;;;;4988013;28;96080;-45
2021/03/01 01:00:57;;;;;;;;;;;19.30;72.10;;;;;;4985680;28;97822;-45
2021/03/01 01:03:28;;;;;;;;;;;19.30;72.80;;;;;;4982815;28;95898;-45
2021/03/01 01:06:06;;;;;;;;;;;19.40;72.20;;;;;;4983151;28;98537;-45
2021/03/01 01:08:36;;;;;;;;;;;19.40;72.20;;;;;;4979478;28;95935;-45
2021/03/01 01:11:06;;;;;;;;;;;19.50;71.60;;;;;;4976414;28;96021;-44
2021/03/01 01:13:35;;;;;;;;;;;19.50;72.10;;;;;;4956699;28;95722;-44
2021/03/01 01:16:05;;;;;;;;;;;19.60;72.00;;;;;;4978953;28;96509;-45
2021/03/01 01:18:36;;;;;;;;;;;19.60;71.90;;;;;;4981407;28;99224;-45
2021/03/01 01:21:07;;;;;;;;;;;19.60;71.90;;;;;;4989927;28;95714;-45
2021/03/01 01:23:37;;;;;;;;;;;19.60;70.10;;;;;;4986547;28;96630;-45
2021/03/01 01:26:08;;;;;;;;;;;19.60;70.60;;;;;;4990559;28;95964;-45
2021/03/01 01:28:37;;;;;;;;;;;19.60;71.10;;;;;;4982938;28;95932;-45
2021/03/01 01:31:07;;;;;;;;;;;19.60;71.40;;;;;;4987566;28;95925;-45
2021/03/01 01:33:37;;;;;;;;;;;19.60;71.20;;;;;;4999058;28;96535;-45
2021/03/01 01:36:10;;;;;;;;;;;19.60;71.20;;;;;;4987456;28;95933;-45
2021/03/01 01:38:52;;;;;;;;;;;19.60;71.80;;;;;;4982938;28;96071;-45
2021/03/01 01:41:23;;;;;;;;;;;19.60;71.60;;;;;;4944194;28;99100;-45
2021/03/01 01:43:53;;;;;;;;;;;19.60;72.10;;;;;;4983794;28;96607;-47
2021/03/01 01:46:23;;;;;;;;;;;19.70;72.00;;;;;;4987336;28;95823;-46
2021/03/01 01:48:53;;;;;;;;;;;19.80;71.90;;;;;;4983268;28;95948;-48
2021/03/01 01:51:25;;;;;;;;;;;19.90;71.50;;;;;;4990675;28;96535;-45
2021/03/01 01:53:54;;;;;;;;;;;19.90;71.60;;;;;;4996731;28;96271;-46
2021/03/01 01:56:26;;;;;;;;;;;20.00;71.60;;;;;;5004075;28;95675;-47
2021/03/01 01:58:55;;;;;;;;;;;20.10;72.00;;;;;;4999262;28;98568;-46
2021/03/01 02:01:27;;;;;;;;;;;20.10;71.80;;;;;;4984462;28;96183;-46
2021/03/01 02:04:02;;;;;;;;;;;20.20;71.60;;;;;;4988501;28;96215;-45
2021/03/01 02:06:32;;;;;;;;;;;20.30;71.70;;;;;;4985891;28;95643;-44
2021/03/01 02:09:15;;;;;;;;;;;20.40;71.40;;;;;;4980707;28;96023;-43
2021/03/01 02:12:03;;;;;;;;;;;20.40;71.50;;;;;;4988886;28;95781;-46
2021/03/01 02:14:51;;;;;;;;;;;20.40;70.90;;;;;;4984718;28;100603;-46
2021/03/01 02:17:21;;;;;;;;;;;20.40;70.30;;;;;;4991162;28;95260;-46
2021/03/01 02:19:52;;;;;;;;;;;20.40;70.50;;;;;;4983361;28;96085;-47
2021/03/01 02:22:27;;;;;;;;;;;20.30;69.40;;;;;;4984628;28;95689;-46
2021/03/01 02:25:00;;;;;;;;;;;20.30;70.50;;;;;;4985430;28;97516;-47
2021/03/01 02:27:37;;;;;;;;;;;20.30;70.10;;;;;;4984843;28;95738;-46
2021/03/01 02:30:11;;;;;;;;;;;20.40;70.00;;;;;;4985700;28;97659;-47
2021/03/01 02:32:43;;;;;;;;;;;20.40;68.90;;;;;;4983546;28;95975;-47
2021/03/01 02:35:14;;;;;;;;;;;20.40;69.90;;;;;;4982546;28;95413;-47
2021/03/01 02:37:44;;;;;;;;;;;20.40;70.00;;;;;;4990597;28;95829;-47
2021/03/01 02:40:17;;;;;;;;;;;20.40;67.60;;;;;;4985165;28;96321;-48
2021/03/01 02:42:48;;;;;;;;;;;20.30;67.30;;;;;;4980474;28;95944;-47
2021/03/01 02:45:18;;;;;;;;;;;20.20;68.00;;;;;;4978371;28;96058;-47
2021/03/01 02:47:48;;;;;;;;;;;20.30;68.10;;;;;;4985219;28;95769;-50
2021/03/01 02:50:19;;;;;;;;;;;20.20;66.70;;;;;;4983704;28;96580;-38
2021/03/01 02:52:50;;;;;;;;;;;20.40;69.90;;;;;;4988401;28;95990;-38
2021/03/01 02:55:21;;;;;;;;;;;20.60;69.20;;;;;;4982515;28;96052;-37
2021/03/01 02:58:12;;;;;;;;;;;20.80;69.00;;;;;;4986953;28;95649;-38
2021/03/01 03:00:44;;;;;;;;;;;20.90;68.80;;;;;;4985266;28;96080;-38
2021/03/01 03:03:15;;;;;;;;;;;20.90;68.70;;;;;;4985649;28;95909;-37
2021/03/01 03:05:45;;;;;;;;;;;21.00;68.80;;;;;;4981397;28;95703;-37
2021/03/01 03:08:16;;;;;;;;;;;21.00;68.60;;;;;;4982791;28;96162;-38
2021/03/01 03:10:47;;;;;;;;;;;21.10;68.50;;;;;;4982221;28;96866;-37
2021/03/01 03:13:17;;;;;;;;;;;21.10;68.50;;;;;;4988498;28;95806;-38
2021/03/01 03:15:51;;;;;;;;;;;21.10;68.60;;;;;;4984550;28;95297;-37
2021/03/01 03:18:24;;;;;;;;;;;21.20;68.70;;;;;;4985928;28;95568;-37
2021/03/01 03:20:57;;;;;;;;;;;21.20;68.70;;;;;;4973792;28;96029;-37
2021/03/01 03:23:26;;;;;;;;;;;21.30;68.70;;;;;;4982654;28;95560;-36
2021/03/01 03:25:57;;;;;;;;;;;21.40;68.70;;;;;;4985360;28;95889;-37
2021/03/01 03:28:27;;;;;;;;;;;21.40;68.70;;;;;;4987495;28;95834;-36
2021/03/01 03:30:57;;;;;;;;;;;21.40;68.80;;;;;;4991812;28;96058;-36
2021/03/01 03:33:28;;;;;;;;;;;21.40;68.70;;;;;;4985464;28;96883;-37
2021/03/01 03:35:57;;;;;;;;;;;21.30;68.80;;;;;;4993052;28;95763;-36
2021/03/01 03:38:32;;;;;;;;;;;21.30;68.80;;;;;;4988550;28;96279;-36
2021/03/01 03:41:04;;;;;;;;;;;21.30;68.90;;;;;;4991483;28;95883;-44
2021/03/01 03:43:35;;;;;;;;;;;21.30;68.90;;;;;;4985431;28;95885;-44
2021/03/01 03:46:07;;;;;;;;;;;21.30;68.90;;;;;;4991903;28;95829;-44
2021/03/01 03:48:39;;;;;;;;;;;21.20;68.90;;;;;;4989238;28;95454;-46
2021/03/01 03:51:10;;;;;;;;;;;21.20;68.90;;;;;;4992688;28;96587;-45
2021/03/01 03:53:51;;;;;;;;;;;21.20;69.00;;;;;;4988912;28;95863;-44
2021/03/01 03:56:24;;;;;;;;;;;21.20;69.00;;;;;;4988937;28;95777;-44
2021/03/01 03:58:59;;;;;;;;;;;21.20;69.00;;;;;;4987706;28;95305;-44
2021/03/01 04:01:33;;;;;;;;;;;21.20;69.00;;;;;;4990841;28;96008;-44
2021/03/01 04:04:06;;;;;;;;;;;21.20;69.00;;;;;;4984766;28;96300;-44
2021/03/01 04:06:38;;;;;;;;;;;21.20;68.90;;;;;;4992415;28;95660;-45
2021/03/01 04:09:13;;;;;;;;;;;21.20;68.80;;;;;;4988244;28;97865;-44
2021/03/01 04:11:45;;;;;;;;;;;21.20;68.80;;;;;;4991137;28;96370;-44
2021/03/01 04:14:19;;;;;;;;;;;21.10;68.80;;;;;;4984979;28;100529;-44
2021/03/01 04:16:51;;;;;;;;;;;21.20;68.90;;;;;;4989040;28;95830;-44
2021/03/01 04:19:22;;;;;;;;;;;21.10;68.90;;;;;;4988057;28;95591;-44
2021/03/01 04:21:55;;;;;;;;;;;21.20;68.90;;;;;;4991248;28;95884;-44
2021/03/01 04:24:25;;;;;;;;;;;21.10;68.60;;;;;;4987277;28;96011;-44
2021/03/01 04:26:56;;;;;;;;;;;21.10;68.50;;;;;;4991389;28;95811;-44
2021/03/01 04:29:26;;;;;;;;;;;21.10;68.60;;;;;;4988632;28;95735;-44
2021/03/01 04:31:59;;;;;;;;;;;21.10;68.50;;;;;;4989863;28;96425;-44
2021/03/01 04:34:29;;;;;;;;;;;21.10;68.40;;;;;;4986972;28;95418;-44
2021/03/01 04:36:58;;;;;;;;;;;21.10;68.50;;;;;;4991608;28;95847;-44
2021/03/01 04:39:27;;;;;;;;;;;21.10;68.50;;;;;;4988879;28;95319;-44
2021/03/01 04:41:57;;;;;;;;;;;21.10;68.70;;;;;;4988768;28;96139;-44
2021/03/01 04:44:27;;;;;;;;;;;21.10;68.70;;;;;;4988406;28;95948;-44
2021/03/01 04:46:58;;;;;;;;;;;21.10;68.50;;;;;;4991116;28;95742;-44
2021/03/01 04:49:29;;;;;;;;;;;21.10;68.60;;;;;;4988801;28;95803;-44
2021/03/01 04:52:00;;;;;;;;;;;21.10;68.50;;;;;;4990868;28;96125;-44
2021/03/01 04:54:30;;;;;;;;;;;21.10;68.70;;;;;;4990902;28;98813;-44
2021/03/01 04:57:01;;;;;;;;;;;21.10;68.60;;;;;;4990288;28;95278;-44
2021/03/01 04:59:33;;;;;;;;;;;21.10;68.80;;;;;;4992529;28;95591;-44
2021/03/01 05:02:04;;;;;;;;;;;21.10;68.70;;;;;;4987947;28;96864;-44
2021/03/01 05:04:34;;;;;;;;;;;21.10;68.70;;;;;;4991069;28;96323;-44
2021/03/01 05:07:06;;;;;;;;;;;21.10;68.80;;;;;;4986615;28;95684;-44
2021/03/01 05:09:38;;;;;;;;;;;21.20;68.90;;;;;;4991999;28;95862;-44
2021/03/01 05:12:07;;;;;;;;;;;21.10;68.70;;;;;;4985908;28;96392;-44
2021/03/01 05:14:36;;;;;;;;;;;21.10;68.80;;;;;;4990259;28;95771;-44
2021/03/01 05:17:07;;;;;;;;;;;21.10;68.80;;;;;;4985098;28;95831;-45
2021/03/01 05:19:39;;;;;;;;;;;21.10;68.70;;;;;;4990446;28;95756;-44
2021/03/01 05:22:12;;;;;;;;;;;21.10;68.70;;;;;;4986841;28;95722;-44
2021/03/01 05:24:42;;;;;;;;;;;21.10;68.50;;;;;;4988529;28;95759;-44
2021/03/01 05:27:12;;;;;;;;;;;21.10;68.60;;;;;;4987908;28;95498;-44
2021/03/01 05:29:42;;;;;;;;;;;21.10;68.70;;;;;;4991169;28;95814;-44
2021/03/01 05:32:12;;;;;;;;;;;21.10;68.80;;;;;;4987109;28;95909;-44
2021/03/01 05:34:41;;;;;;;;;;;21.10;68.70;;;;;;4990035;28;95671;-44
2021/03/01 05:37:10;;;;;;;;;;;21.10;68.70;;;;;;4987141;28;95613;-44
2021/03/01 05:39:40;;;;;;;;;;;21.10;68.70;;;;;;5004216;28;95378;-44
2021/03/01 05:42:11;;;;;;;;;;;21.20;68.90;;;;;;4986376;28;95984;-44
2021/03/01 05:44:41;;;;;;;;;;;21.20;68.80;;;;;;4990485;28;96001;-44
2021/03/01 05:47:12;;;;;;;;;;;21.20;68.80;;;;;;4985945;28;95782;-44
2021/03/01 05:49:46;;;;;;;;;;;21.20;68.60;;;;;;4991962;28;95665;-44
2021/03/01 05:52:18;;;;;;;;;;;21.20;68.10;;;;;;4985689;28;96591;-44
2021/03/01 05:54:49;;;;;;;;;;;21.20;67.90;;;;;;4989885;28;97760;-45
2021/03/01 05:57:19;;;;;;;;;;;21.20;67.70;;;;;;4986286;28;95809;-44
2021/03/01 05:59:50;;;;;;;;;;;21.10;67.60;;;;;;4991761;28;95536;-44
2021/03/01 06:02:22;;;;;;;;;;;21.10;67.70;;;;;;4986304;28;95905;-44
2021/03/01 06:04:52;;;;;;;;;;;21.10;67.50;;;;;;4989016;28;95559;-44
2021/03/01 06:07:24;;;;;;;;;;;21.10;67.40;;;;;;4989014;28;95858;-45
2021/03/01 06:09:54;;;;;;;;;;;21.10;66.70;;;;;;4990178;28;95732;-44
2021/03/01 06:12:23;;;;;;;;;;;21.10;66.80;;;;;;4988187;28;98814;-44
2021/03/01 06:14:52;;;;;;;;;;;21.10;67.10;;;;;;4985042;28;96389;-44
2021/03/01 06:17:21;;;;;;;;;;;21.10;67.00;;;;;;4990138;28;97000;-44
2021/03/01 06:19:53;;;;;;;;;;;21.10;67.00;;;;;;4984070;28;95496;-45
2021/03/01 06:22:40;;;;;;;;;;;21.10;66.90;;;;;;4988442;28;96535;-44
2021/03/01 06:25:14;;;;;;;;;;;21.10;67.00;;;;;;4985885;28;95524;-44
2021/03/01 06:27:56;;;;;;;;;;;21.10;66.90;;;;;;4987709;28;95699;-44
2021/03/01 06:30:28;;;;;;;;;;;21.10;66.60;;;;;;4986184;28;95901;-44
2021/03/01 06:33:09;;;;;;;;;;;21.10;66.70;;;;;;4989446;28;96046;-44
2021/03/01 06:35:41;;;;;;;;;;;21.10;66.70;;;;;;4986037;28;95869;-44
2021/03/01 06:38:13;;;;;;;;;;;21.10;66.70;;;;;;4987661;28;95819;-44
2021/03/01 06:40:44;;;;;;;;;;;21.10;66.50;;;;;;4988647;28;95838;-44
2021/03/01 06:43:14;;;;;;;;;;;21.10;66.60;;;;;;4992194;28;96043;-44
2021/03/01 06:45:43;;;;;;;;;;;21.10;66.40;;;;;;4988281;28;95782;-44
2021/03/01 06:48:14;;;;;;;;;;;21.10;66.50;;;;;;4989778;28;96098;-44
2021/03/01 06:50:55;;;;;;;;;;;21.10;66.60;;;;;;4991807;28;95336;-44
2021/03/01 06:53:25;;;;;;;;;;;21.20;66.80;;;;;;4988423;28;96412;-44
2021/03/01 06:56:11;;;;;;;;;;;21.20;66.70;;;;;;4990508;28;95791;-44
2021/03/01 06:58:43;;;;;;;;;;;21.10;67.20;;;;;;4993546;28;95594;-45
2021/03/01 07:01:16;;;;;;;;;;;21.20;66.40;;;;;;4989583;28;96557;-44
2021/03/01 07:03:48;;;;;;;;;;;21.10;66.10;;;;;;4990579;28;95841;-44
2021/03/01 07:06:19;;;;;;;;;;;21.10;66.20;;;;;;4990751;28;95812;-44
2021/03/01 07:08:52;;;;;;;;;;;21.10;66.00;;;;;;4993233;28;95782;-44
2021/03/01 07:11:28;;;;;;;;;;;21.10;66.00;;;;;;4990405;28;95781;-44
2021/03/01 07:14:06;;;;;;;;;;;21.10;65.90;;;;;;4991398;28;96075;-44
2021/03/01 07:16:37;;;;;;;;;;;21.10;65.90;;;;;;4988411;28;97837;-43
2021/03/01 07:19:13;;;;;;;;;;;21.10;65.90;;;;;;4991749;28;95715;-44
2021/03/01 07:21:44;;;;;;;;;;;21.10;65.90;;;;;;4988565;28;95740;-44
2021/03/01 07:24:19;;;;;;;;;;;21.00;65.80;;;;;;4990672;28;96606;-44
2021/03/01 07:26:49;;;;;;;;;;;21.00;65.80;;;;;;4988619;28;96127;-44
2021/03/01 07:29:20;;;;;;;;;;;21.00;65.80;;;;;;4992136;28;95348;-44
2021/03/01 07:32:03;;;;;;;;;;;21.00;66.30;;;;;;4990058;28;95717;-44
2021/03/01 07:34:34;;;;;;;;;;;21.00;65.70;;;;;;4991654;28;95648;-45
2021/03/01 07:37:04;;;;;;;;;;;20.90;65.70;;;;;;4987204;28;95504;-44
2021/03/01 07:39:36;;;;;;;;;;;20.90;65.80;;;;;;4991667;28;95839;-44
2021/03/01 07:42:11;;;;;;;;;;;20.90;66.00;;;;;;4989057;28;95993;-44
2021/03/01 07:44:41;;;;;;;;;;;20.90;65.90;;;;;;4992128;28;96172;-45
2021/03/01 07:47:12;;;;;;;;;;;20.90;66.10;;;;;;4988707;28;96006;-43
2021/03/01 07:49:50;;;;;;;;;;;20.90;66.30;;;;;;4993133;28;95367;-44
2021/03/01 07:52:20;;;;;;;;;;;20.90;66.40;;;;;;5002803;28;95476;-44
2021/03/01 07:54:55;;;;;;;;;;;20.90;66.60;;;;;;4991835;28;97141;-44
2021/03/01 07:57:30;;;;;;;;;;;20.90;66.60;;;;;;4989710;28;96309;-44
2021/03/01 08:00:21;;;;;;;;;;;20.90;66.60;;;;;;4992538;28;95945;-44
2021/03/01 08:02:50;;;;;;;;;;;20.80;66.60;;;;;;4989546;28;96987;-44
2021/03/01 08:05:22;;;;;;;;;;;20.80;66.70;;;;;;4992480;28;96503;-46
2021/03/01 08:07:56;;;;;;;;;;;20.80;66.90;;;;;;4988991;28;96279;-46
2021/03/01 08:10:32;;;;;;;;;;;20.70;66.70;;;;;;4991715;28;98437;-46
2021/03/01 08:13:07;;;;;;;;;;;20.80;66.80;;;;;;4990047;28;95818;-46
2021/03/01 08:15:40;;;;;;;;;;;20.70;66.90;;;;;;4991967;28;95856;-46
2021/03/01 08:18:11;;;;;;;;;;;20.70;66.90;;;;;;4987338;28;95408;-44
2021/03/01 08:20:54;;;;;;;;;;;20.60;67.00;;;;;;4991620;28;95359;-44
2021/03/01 08:23:33;;;;;;;;;;;20.60;67.20;;;;;;4983267;28;101196;-44
2021/03/01 08:26:04;;;;;;;;;;;20.60;67.30;;;;;;4985246;28;95844;-44
2021/03/01 08:28:35;;;;;;;;;;;20.60;67.40;;;;;;4987044;28;95667;-44
2021/03/01 08:31:12;;;;;;;;;;;20.60;67.50;;;;;;4991491;28;95793;-44
2021/03/01 08:33:42;;;;;;;;;;;20.60;67.60;;;;;;4988692;28;97569;-44
2021/03/01 08:36:25;;;;;;;;;;;20.50;67.70;;;;;;4985321;28;95719;-44
2021/03/01 08:38:56;;;;;;;;;;;20.50;67.90;;;;;;4987534;28;95762;-44
2021/03/01 08:41:30;;;;;;;;;;;20.50;67.90;;;;;;4991468;28;95646;-44
2021/03/01 08:44:00;;;;;;;;;;;20.50;67.90;;;;;;4986450;28;95741;-44
2021/03/01 08:46:31;;;;;;;;;;;20.40;67.90;;;;;;4990869;28;95779;-45
2021/03/01 08:49:04;;;;;;;;;;;20.40;67.90;;;;;;4988450;28;95971;-46
2021/03/01 08:51:51;;;;;;;;;;;20.40;67.90;;;;;;4991795;28;97374;-46
2021/03/01 08:54:40;;;;;;;;;;;20.40;68.00;;;;;;4989749;28;95758;-47
2021/03/01 08:57:11;;;;;;;;;;;20.40;68.10;;;;;;4990701;28;96245;-44
2021/03/01 08:59:41;;;;;;;;;;;20.30;68.10;;;;;;4987998;28;95947;-45
2021/03/01 09:02:21;;;;;;;;;;;20.30;68.00;;;;;;4990850;28;95802;-45
2021/03/01 09:05:07;;;;;;;;;;;20.30;68.00;;;;;;4988620;28;95740;-45
2021/03/01 09:07:44;;;;;;;;;;;20.30;68.10;;;;;;4989802;28;95960;-44
2021/03/01 09:10:15;;;;;;;;;;;20.20;68.00;;;;;;4987664;28;96345;-44
2021/03/01 09:12:46;;;;;;;;;;;20.20;68.20;;;;;;4991000;28;95653;-45
2021/03/01 09:15:20;;;;;;;;;;;20.20;68.20;;;;;;4988153;28;95940;-44
2021/03/01 09:17:55;;;;;;;;;;;20.20;68.30;;;;;;4989337;28;95861;-45
2021/03/01 09:20:26;;;;;;;;;;;20.20;68.20;;;;;;4986419;28;95720;-44
2021/03/01 09:22:56;;;;;;;;;;;20.20;68.00;;;;;;4979567;28;95840;-45
2021/03/01 09:25:29;;;;;;;;;;;20.10;68.00;;;;;;4980193;28;95802;-45
2021/03/01 09:27:59;;;;;;;;;;;20.10;68.10;;;;;;4984297;28;95975;-45
2021/03/01 09:30:29;;;;;;;;;;;20.10;68.00;;;;;;4977287;28;95926;-44
2021/03/01 09:33:04;;;;;;;;;;;20.10;68.00;;;;;;4984399;28;95648;-44
2021/03/01 09:35:37;;;;;;;;;;;20.10;67.80;;;;;;4981895;28;95784;-45
2021/03/01 09:38:09;;;;;;;;;;;20.00;67.70;;;;;;4986075;28;96184;-44
2021/03/01 09:40:40;;;;;;;;;;;20.00;67.70;;;;;;4979670;28;95712;-44
2021/03/01 09:43:09;;;;;;;;;;;20.00;67.70;;;;;;4989517;28;95711;-45
2021/03/01 09:45:39;;;;;;;;;;;20.00;67.60;;;;;;4990311;28;96047;-45
2021/03/01 09:48:11;;;;;;;;;;;19.90;67.40;;;;;;4984275;28;95974;-45
2021/03/01 09:50:42;;;;;;;;;;;19.90;67.30;;;;;;4987431;28;95819;-44
2021/03/01 09:53:18;;;;;;;;;;;19.90;67.20;;;;;;4979609;28;96219;-46
2021/03/01 09:55:52;;;;;;;;;;;19.90;67.20;;;;;;4984462;28;95561;-46
2021/03/01 09:58:26;;;;;;;;;;;19.90;67.10;;;;;;4977605;28;96075;-46
2021/03/01 10:01:14;;;;;;;;;;;19.80;67.00;;;;;;4985613;28;95746;-47
2021/03/01 10:03:48;;;;;;;;;;;19.80;66.90;;;;;;4985528;28;96715;-44
2021/03/01 10:06:31;;;;;;;;;;;19.80;66.90;;;;;;4986592;28;95630;-47
2021/03/01 10:09:08;;;;;;;;;;;19.80;66.90;;;;;;4986054;28;95914;-46
2021/03/01 10:11:37;;;;;;;;;;;19.70;66.90;;;;;;4983652;28;95656;-44
2021/03/01 10:14:07;;;;;;;;;;;19.70;67.20;;;;;;4974970;28;95704;-45
2021/03/01 10:16:40;;;;;;;;;;;19.70;67.10;;;;;;4982857;28;96033;-45
2021/03/01 10:19:15;;;;;;;;;;;19.70;67.00;;;;;;4999345;28;95885;-45
2021/03/01 10:21:46;;;;;;;;;;;19.70;67.10;;;;;;4980529;28;95718;-45
2021/03/01 10:24:18;;;;;;;;;;;19.60;67.20;;;;;;4983658;28;96091;-45
2021/03/01 10:26:56;;;;;;;;;;;19.70;66.90;;;;;;4992418;28;95722;-45
2021/03/01 10:29:31;;;;;;;;;;;19.60;67.10;;;;;;4986701;28;95896;-45
2021/03/01 10:32:04;;;;;;;;;;;19.60;67.10;;;;;;4982753;28;98950;-44
2021/03/01 10:34:37;;;;;;;;;;;19.60;67.00;;;;;;4985072;28;95970;-45
2021/03/01 10:37:09;;;;;;;;;;;19.50;66.90;;;;;;4992886;28;95645;-45
2021/03/01 10:39:40;;;;;;;;;;;19.50;66.90;;;;;;4989514;28;99104;-45
2021/03/01 10:42:12;;;;;;;;;;;19.50;66.90;;;;;;4991166;28;95795;-45
2021/03/01 10:44:42;;;;;;;;;;;19.50;67.00;;;;;;4991034;28;97439;-45
2021/03/01 10:47:13;;;;;;;;;;;19.50;67.20;;;;;;4992658;28;95994;-45
2021/03/01 10:49:46;;;;;;;;;;;19.50;66.90;;;;;;4989312;28;96276;-45
2021/03/01 10:52:17;;;;;;;;;;;19.40;66.80;;;;;;4992630;28;95752;-45
2021/03/01 10:54:54;;;;;;;;;;;19.40;67.00;;;;;;4980914;28;95258;-45
2021/03/01 10:57:26;;;;;;;;;;;19.40;67.20;;;;;;4988369;28;95791;-45
2021/03/01 10:59:59;;;;;;;;;;;19.40;67.10;;;;;;4982187;28;95890;-45
2021/03/01 11:02:29;;;;;;;;;;;19.40;67.30;;;;;;4981525;28;95694;-45
2021/03/01 11:04:59;;;;;;;;;;;19.30;67.50;;;;;;4982690;28;95261;-45
2021/03/01 11:07:30;;;;;;;;;;;19.30;67.30;;;;;;4986923;28;95941;-45
2021/03/01 11:10:01;;;;;;;;;;;19.30;67.00;;;;;;4989535;28;95782;-45
2021/03/01 11:12:30;;;;;;;;;;;19.30;67.10;;;;;;4992632;28;95933;-45
2021/03/01 11:14:58;;;;;;;;;;;19.30;67.10;;;;;;4987159;28;95679;-45
2021/03/01 11:17:27;;;;;;;;;;;19.30;67.00;;;;;;4990176;28;95879;-45
2021/03/01 11:20:01;;;;;;;;;;;19.20;67.10;;;;;;4983571;28;96840;-45
2021/03/01 11:22:30;;;;;;;;;;;19.20;67.00;;;;;;4982391;28;95801;-45
2021/03/01 11:25:00;;;;;;;;;;;19.20;67.00;;;;;;4976539;28;95772;-45
2021/03/01 11:27:30;;;;;;;;;;;19.20;67.20;;;;;;4978273;28;96318;-45
2021/03/01 11:30:00;;;;;;;;;;;19.10;67.10;;;;;;4981108;28;97504;-45
2021/03/01 11:32:31;;;;;;;;;;;19.20;67.20;;;;;;4987288;28;96045;-45
2021/03/01 11:35:01;;;;;;;;;;;19.10;67.20;;;;;;4983188;28;95744;-45
2021/03/01 11:37:30;;;;;;;;;;;19.10;67.10;;;;;;4990714;28;96034;-45
2021/03/01 11:40:00;;;;;;;;;;;19.10;67.20;;;;;;4991013;28;96445;-45
2021/03/01 11:42:31;;;;;;;;;;;19.10;67.10;;;;;;4988671;28;96253;-45
2021/03/01 11:45:01;;;;;;;;;;;19.10;67.00;;;;;;4990818;28;95587;-45
2021/03/01 11:47:33;;;;;;;;;;;19.10;66.60;;;;;;4987381;28;102091;-45
2021/03/01 11:50:04;;;;;;;;;;;19.00;66.80;;;;;;4991222;28;95915;-45
2021/03/01 11:52:35;;;;;;;;;;;19.00;67.10;;;;;;4988566;28;95886;-44
2021/03/01 11:55:06;;;;;;;;;;;19.00;67.00;;;;;;4992383;28;95795;-45
2021/03/01 11:57:36;;;;;;;;;;;19.00;67.00;;;;;;4983571;28;95314;-46
2021/03/01 12:00:07;;;;;;;;;;;18.90;67.00;;;;;;4991529;28;96062;-45
2021/03/01 12:02:57;;;;;;;;;;;18.90;67.00;;;;;;4986822;28;96511;-45
2021/03/01 12:05:28;;;;;;;;;;;18.90;66.80;;;;;;4989932;28;95804;-45
2021/03/01 12:07:58;;;;;;;;;;;18.90;66.80;;;;;;4989555;28;96050;-45
2021/03/01 12:10:29;;;;;;;;;;;18.90;66.90;;;;;;4991302;28;96353;-44
2021/03/01 12:13:00;;;;;;;;;;;18.80;67.00;;;;;;4985486;28;96055;-45
2021/03/01 12:15:29;;;;;;;;;;;18.80;67.00;;;;;;4992418;28;95858;-45
2021/03/01 12:18:00;;;;;;;;;;;18.80;67.10;;;;;;4987235;28;96094;-45
2021/03/01 12:20:31;;;;;;;;;;;18.80;67.20;;;;;;4989059;28;97638;-45
2021/03/01 12:23:01;;;;;;;;;;;18.80;67.10;;;;;;4988010;28;95927;-45
2021/03/01 12:25:31;;;;;;;;;;;18.80;67.10;;;;;;4989556;28;98152;-45
2021/03/01 12:28:00;;;;;;;;;;;18.70;67.20;;;;;;4982314;28;95887;-45
2021/03/01 12:30:29;;;;;;;;;;;18.70;67.40;;;;;;4987814;28;97464;-45
2021/03/01 12:33:03;;;;;;;;;;;18.70;67.50;;;;;;4993553;28;95371;-47
2021/03/01 12:35:33;;;;;;;;;;;18.70;67.60;;;;;;4980223;28;95218;-45
2021/03/01 12:38:03;;;;;;;;;;;18.70;67.60;;;;;;4982124;28;96157;-45
2021/03/01 12:40:34;;;;;;;;;;;18.60;67.60;;;;;;4978288;28;95970;-45
2021/03/01 12:43:03;;;;;;;;;;;18.60;67.80;;;;;;4981582;28;95942;-45
2021/03/01 12:45:33;;;;;;;;;;;18.60;67.70;;;;;;4981675;28;95583;-44
2021/03/01 12:48:04;;;;;;;;;;;18.60;67.70;;;;;;4977623;28;95916;-45
2021/03/01 12:50:36;;;;;;;;;;;18.60;68.00;;;;;;4989138;28;96464;-45
2021/03/01 12:53:08;;;;;;;;;;;18.60;68.50;;;;;;4989245;28;95607;-45
2021/03/01 12:55:39;;;;;;;;;;;18.50;67.90;;;;;;4990169;28;95934;-45
2021/03/01 12:58:10;;;;;;;;;;;18.50;67.90;;;;;;4992555;28;96383;-45
2021/03/01 13:00:43;;;;;;;;;;;18.50;67.90;;;;;;4987819;28;96131;-45
2021/03/01 13:03:33;;;;;;;;;;;18.50;68.00;;;;;;4983828;28;95626;-45
2021/03/01 13:06:04;;;;;;;;;;;18.50;67.90;;;;;;4990703;28;95901;-45
2021/03/01 13:08:34;;;;;;;;;;;18.50;68.00;;;;;;4991395;28;95736;-45
2021/03/01 13:11:05;;;;;;;;;;;18.40;68.00;;;;;;4987075;28;96452;-44
2021/03/01 13:13:34;;;;;;;;;;;18.40;68.10;;;;;;4988891;28;95791;-45
2021/03/01 13:16:04;;;;;;;;;;;18.40;68.10;;;;;;4984314;28;95203;-47
2021/03/01 13:18:35;;;;;;;;;;;18.40;68.20;;;;;;4986333;28;95777;-44
2021/03/01 13:21:06;;;;;;;;;;;18.40;68.20;;;;;;4986639;28;96203;-43
2021/03/01 13:23:36;;;;;;;;;;;18.40;68.20;;;;;;4989607;28;96008;-44
2021/03/01 13:26:06;;;;;;;;;;;18.30;68.20;;;;;;4985905;28;95730;-45
2021/03/01 13:28:36;;;;;;;;;;;18.30;68.30;;;;;;4989360;28;95693;-45
2021/03/01 13:31:07;;;;;;;;;;;18.30;68.20;;;;;;4986791;28;95790;-45
2021/03/01 13:33:41;;;;;;;;;;;18.30;68.10;;;;;;4989492;28;96350;-44
2021/03/01 13:36:10;;;;;;;;;;;18.30;68.20;;;;;;4988216;28;95527;-44
2021/03/01 13:38:40;;;;;;;;;;;18.30;68.10;;;;;;4990282;28;95729;-44
2021/03/01 13:41:11;;;;;;;;;;;18.30;68.20;;;;;;4987437;28;96530;-45
2021/03/01 13:43:40;;;;;;;;;;;18.30;68.20;;;;;;4988346;28;96003;-44
2021/03/01 13:46:09;;;;;;;;;;;18.30;68.20;;;;;;4985290;28;95920;-45
2021/03/01 13:48:40;;;;;;;;;;;18.20;68.10;;;;;;4984535;28;95784;-45
2021/03/01 13:51:09;;;;;;;;;;;18.20;68.20;;;;;;4985630;28;97041;-44
2021/03/01 13:53:40;;;;;;;;;;;18.20;68.30;;;;;;4987400;28;95741;-44
2021/03/01 13:56:12;;;;;;;;;;;18.20;68.20;;;;;;4987504;28;95347;-46
2021/03/01 13:58:43;;;;;;;;;;;18.20;68.20;;;;;;4990806;28;95592;-34
2021/03/01 14:01:13;;;;;;;;;;;18.20;68.50;;;;;;4984350;28;96103;-35
2021/03/01 14:03:43;;;;;;;;;;;18.20;68.60;;;;;;4980550;28;95461;-35
2021/03/01 14:06:14;;;;;;;;;;;18.30;68.60;;;;;;4978175;28;95898;-35
2021/03/01 14:08:45;;;;;;;;;;;18.30;68.60;;;;;;4989790;28;95714;-35
2021/03/01 14:11:14;;;;;;;;;;;18.30;68.60;;;;;;4985921;28;95920;-35
2021/03/01 14:13:42;;;;;;;;;;;18.30;68.70;;;;;;4988024;28;95418;-35
2021/03/01 14:16:11;;;;;;;;;;;18.30;68.70;;;;;;4985459;28;95575;-35
2021/03/01 14:18:41;;;;;;;;;;;18.30;68.70;;;;;;4986272;28;96221;-44
2021/03/01 14:21:13;;;;;;;;;;;18.30;68.80;;;;;;4988629;28;96120;-45
2021/03/01 14:23:42;;;;;;;;;;;18.30;68.70;;;;;;4985757;28;95818;-46
2021/03/01 14:26:14;;;;;;;;;;;18.30;68.80;;;;;;4989807;28;96754;-44
2021/03/01 14:28:43;;;;;;;;;;;18.30;68.80;;;;;;4987212;28;96579;-43
2021/03/01 14:31:12;;;;;;;;;;;18.30;68.90;;;;;;4989806;28;95896;-44
2021/03/01 14:33:42;;;;;;;;;;;18.40;68.90;;;;;;4983115;28;96063;-44
2021/03/01 14:40:15;;;;;;;;;;;18.30;69.00;;;;;;4979812;28;95854;-44
2021/03/01 14:42:50;;;;;;;;;;;18.30;69.00;;;;;;4985237;28;96507;-44
2021/03/01 14:45:19;;;;;;;;;;;18.30;69.00;;;;;;4986879;28;95865;-44
2021/03/01 14:47:51;;;;;;;;;;;18.30;69.00;;;;;;4986284;28;95875;-44